createdAt,value
2022-12-26T00:03:50.123Z,99.90
2022-12-26T00:07:53.094Z,99.90
2022-12-26T00:11:57.202Z,99.90
2022-12-26T00:16:00.146Z,99.90
2022-12-26T00:20:03.556Z,99.90
2022-12-26T00:24:06.702Z,99.90
2022-12-26T00:28:10.826Z,99.90
2022-12-26T00:32:13.622Z,99.90
2022-12-26T00:36:18.465Z,99.90
2022-12-26T00:40:21.275Z,99.90
2022-12-26T00:44:25.392Z,99.90
2022-12-26T00:48:29.877Z,99.90
2022-12-26T00:52:32.703Z,99.90
2022-12-26T00:56:35.515Z,99.90
2022-12-26T01:00:39.768Z,99.90
2022-12-26T01:04:42.591Z,99.90
2022-12-26T01:08:45.913Z,99.90
2022-12-26T01:12:48.683Z,99.90
2022-12-26T01:16:52.949Z,99.90
2022-12-26T01:21:00.956Z,99.90
2022-12-26T01:25:03.855Z,99.90
2022-12-26T01:29:06.633Z,99.90
2022-12-26T01:33:10.756Z,99.90
2022-12-26T01:37:14.538Z,99.90
2022-12-26T01:41:20.971Z,99.90
2022-12-26T01:45:27.821Z,99.90
2022-12-26T01:49:38.249Z,99.90
2022-12-26T01:53:44.134Z,99.90
2022-12-26T01:57:51.013Z,99.90
2022-12-26T02:01:55.867Z,99.90
2022-12-26T02:06:01.925Z,99.90
2022-12-26T02:10:08.470Z,99.90
2022-12-26T02:14:12.376Z,99.90
2022-12-26T02:18:15.447Z,99.90
2022-12-26T02:22:43.928Z,99.90
2022-12-26T02:27:03.423Z,99.90
2022-12-26T02:31:13.898Z,99.90
2022-12-26T02:35:26.154Z,99.90
2022-12-26T02:39:53.565Z,99.90
2022-12-26T02:44:28.798Z,99.90
2022-12-26T02:48:43.167Z,99.90
2022-12-26T02:53:16.360Z,99.90
2022-12-26T02:57:40.855Z,99.90
2022-12-26T03:02:05.627Z,99.90
2022-12-26T03:06:32.663Z,99.90
2022-12-26T03:10:55.172Z,99.90
2022-12-26T03:15:01.929Z,99.90
2022-12-26T03:19:08.172Z,99.90
2022-12-26T03:23:14.866Z,99.90
2022-12-26T03:27:17.625Z,99.90
2022-12-26T03:31:19.713Z,99.90
2022-12-26T03:35:23.431Z,99.90
2022-12-26T03:39:58.497Z,99.90
2022-12-26T03:44:33.626Z,99.90
2022-12-26T03:49:02.277Z,99.90
2022-12-26T03:53:29.554Z,99.90
2022-12-26T03:57:57.310Z,99.90
2022-12-26T04:02:23.555Z,99.90
2022-12-26T04:06:51.460Z,99.90
2022-12-26T04:11:14.768Z,99.90
2022-12-26T04:15:41.490Z,99.90
2022-12-26T04:20:02.680Z,99.90
2022-12-26T04:24:29.483Z,99.90
2022-12-26T04:28:49.996Z,99.90
2022-12-26T04:33:17.772Z,99.90
2022-12-26T04:37:43.542Z,99.90
2022-12-26T04:42:05.659Z,99.90
2022-12-26T04:46:09.274Z,99.90
2022-12-26T04:50:13.488Z,99.90
2022-12-26T04:54:16.411Z,99.90
2022-12-26T04:58:19.231Z,99.90
2022-12-26T05:02:45.191Z,99.90
2022-12-26T05:07:07.095Z,99.90
2022-12-26T05:11:09.859Z,99.90
2022-12-26T05:15:12.938Z,99.90
2022-12-26T05:19:35.379Z,99.90
2022-12-26T05:23:57.225Z,99.90
2022-12-26T05:28:17.500Z,99.90
2022-12-26T05:32:37.717Z,99.90
2022-12-26T05:36:44.391Z,99.90
2022-12-26T05:40:48.451Z,99.90
2022-12-26T05:44:51.181Z,99.90
2022-12-26T05:48:53.895Z,99.90
2022-12-26T05:52:57.884Z,99.90
2022-12-26T05:57:03.855Z,99.90
2022-12-26T06:01:11.828Z,99.90
2022-12-26T06:05:14.660Z,99.90
2022-12-26T06:09:17.560Z,99.90
2022-12-26T06:13:21.740Z,99.90
2022-12-26T06:17:24.506Z,99.90
2022-12-26T06:21:27.231Z,99.90
2022-12-26T06:25:29.986Z,99.90
2022-12-26T06:29:34.081Z,99.90
2022-12-26T06:33:37.148Z,99.90
2022-12-26T06:37:40.257Z,99.90
2022-12-26T06:41:43.012Z,99.90
2022-12-26T06:45:55.822Z,99.90
2022-12-26T06:49:59.081Z,99.90
2022-12-26T06:54:03.142Z,99.90
2022-12-26T06:58:05.882Z,99.90
2022-12-26T07:02:11.687Z,99.90
2022-12-26T07:06:23.005Z,99.90
2022-12-26T07:10:25.767Z,99.90
2022-12-26T07:14:28.544Z,99.90
2022-12-26T07:18:33.265Z,99.90
2022-12-26T07:22:36.029Z,99.90
2022-12-26T07:26:38.744Z,99.90
2022-12-26T07:30:46.539Z,99.90
2022-12-26T07:34:50.609Z,99.90
2022-12-26T07:38:53.554Z,99.90
2022-12-26T07:42:56.297Z,99.90
2022-12-26T07:47:00.885Z,99.90
2022-12-26T07:51:05.262Z,99.90
2022-12-26T07:55:08.770Z,99.90
2022-12-26T07:59:15.335Z,99.90
2022-12-26T08:03:18.244Z,99.90
2022-12-26T08:07:22.422Z,99.90
2022-12-26T08:11:26.044Z,99.90
2022-12-26T08:15:28.789Z,99.90
2022-12-26T08:19:31.950Z,99.90
2022-12-26T08:23:36.106Z,99.90
2022-12-26T08:27:38.919Z,99.90
2022-12-26T08:31:41.725Z,99.90
2022-12-26T08:35:44.984Z,99.90
2022-12-26T08:39:49.110Z,99.90
2022-12-26T08:44:25.682Z,99.90
2022-12-26T08:48:15.840Z,99.90
2022-12-26T08:52:18.591Z,99.90
2022-12-26T08:56:25.943Z,99.90
2022-12-26T09:00:28.721Z,99.90
2022-12-26T09:04:31.483Z,99.90
2022-12-26T09:08:35.813Z,99.90
2022-12-26T09:12:39.955Z,99.90
2022-12-26T09:16:50.504Z,99.90
2022-12-26T09:20:53.949Z,99.90
2022-12-26T09:24:56.751Z,99.90
2022-12-26T09:29:01.065Z,99.90
2022-12-26T09:33:07.740Z,99.90
2022-12-26T09:37:10.511Z,99.90
2022-12-26T09:41:33.685Z,99.90
2022-12-26T09:45:51.339Z,99.90
2022-12-26T09:49:57.455Z,99.90
2022-12-26T09:54:03.321Z,99.90
2022-12-26T09:58:14.205Z,99.90
2022-12-26T10:02:22.232Z,99.90
2022-12-26T10:06:26.915Z,99.90
2022-12-26T10:10:37.566Z,99.90
2022-12-26T10:14:44.977Z,99.90
2022-12-26T10:18:56.705Z,99.90
2022-12-26T10:23:24.958Z,99.90
2022-12-26T10:27:30.556Z,99.90
2022-12-26T10:31:38.526Z,99.90
2022-12-26T10:35:45.326Z,99.90
2022-12-26T10:39:53.137Z,99.90
2022-12-26T10:43:56.353Z,99.90
2022-12-26T10:47:59.206Z,99.90
2022-12-26T10:52:05.062Z,99.90
2022-12-26T10:56:13.250Z,99.90
2022-12-26T11:00:21.160Z,99.90
2022-12-26T11:04:53.135Z,99.90
2022-12-26T11:08:51.356Z,99.90
2022-12-26T11:12:55.945Z,99.90
2022-12-26T11:17:01.787Z,99.90
2022-12-26T11:21:20.892Z,99.90
2022-12-26T11:25:27.563Z,99.90
2022-12-26T11:29:30.333Z,99.90
2022-12-26T11:33:36.472Z,99.90
2022-12-26T11:37:45.293Z,99.90
2022-12-26T11:41:49.648Z,99.90
2022-12-26T11:45:52.470Z,99.90
2022-12-26T11:50:00.229Z,99.90
2022-12-26T11:54:22.122Z,99.90
2022-12-26T11:58:30.301Z,99.70
2022-12-26T12:02:37.115Z,99.60
2022-12-26T12:06:56.006Z,99.70
2022-12-26T12:11:16.097Z,99.60
2022-12-26T12:15:27.428Z,99.70
2022-12-26T12:19:42.175Z,99.60
2022-12-26T12:23:59.991Z,99.70
2022-12-26T12:28:12.824Z,99.80
2022-12-26T12:32:25.237Z,99.80
2022-12-26T12:36:35.701Z,99.90
2022-12-26T12:40:47.146Z,99.90
2022-12-26T12:45:26.981Z,99.90
2022-12-26T12:49:46.364Z,99.90
2022-12-26T12:54:17.875Z,99.90
2022-12-26T12:58:27.636Z,99.90
2022-12-26T13:02:34.333Z,99.90
2022-12-26T13:06:43.021Z,99.90
2022-12-26T13:10:52.086Z,99.90
2022-12-26T13:14:59.671Z,99.90
2022-12-26T13:19:07.062Z,99.90
2022-12-26T13:23:37.076Z,99.90
2022-12-26T13:27:40.508Z,99.90
2022-12-26T13:31:45.114Z,99.90
2022-12-26T13:35:57.043Z,99.90
2022-12-26T13:40:04.521Z,99.90
2022-12-26T13:44:24.163Z,99.90
2022-12-26T13:48:56.860Z,99.90
2022-12-26T13:53:00.522Z,99.90
2022-12-26T13:57:35.958Z,99.90
2022-12-26T14:01:55.084Z,99.90
2022-12-26T14:06:30.807Z,99.90
2022-12-26T14:10:43.332Z,99.90
2022-12-26T14:15:04.470Z,99.90
2022-12-26T14:19:16.277Z,99.90
2022-12-26T14:23:30.630Z,99.90
2022-12-26T14:27:41.403Z,99.90
2022-12-26T14:31:53.638Z,99.90
2022-12-26T14:36:05.386Z,99.90
2022-12-26T14:40:24.845Z,99.90
2022-12-26T14:44:43.422Z,99.90
2022-12-26T14:48:55.825Z,99.90
2022-12-26T14:53:23.050Z,99.90
2022-12-26T14:57:47.552Z,99.90
2022-12-26T15:02:02.176Z,99.90
2022-12-26T15:06:36.497Z,99.90
2022-12-26T15:11:04.991Z,99.90
2022-12-26T15:15:28.440Z,99.90
2022-12-26T15:20:24.050Z,99.90
2022-12-26T15:25:18.011Z,99.90
2022-12-26T15:29:45.367Z,99.90
2022-12-26T15:33:53.740Z,99.90
2022-12-26T15:38:22.089Z,99.90
2022-12-26T15:42:40.187Z,99.90
2022-12-26T15:46:50.682Z,99.90
2022-12-26T15:50:59.346Z,99.90
2022-12-26T15:55:13.373Z,99.90
2022-12-26T15:59:52.608Z,99.90
2022-12-26T16:03:57.643Z,99.90
2022-12-26T16:08:10.690Z,99.90
2022-12-26T16:12:23.995Z,99.90
2022-12-26T16:16:31.448Z,99.90
2022-12-26T16:20:51.957Z,99.90
2022-12-26T16:24:55.403Z,99.90
2022-12-26T16:29:00.096Z,99.90
2022-12-26T16:33:05.351Z,99.90
2022-12-26T16:37:08.396Z,99.90
2022-12-26T16:41:21.891Z,99.90
2022-12-26T16:45:25.930Z,99.90
2022-12-26T16:49:32.525Z,99.90
2022-12-26T17:26:35.348Z,99.90
2022-12-26T17:30:40.328Z,99.90
2022-12-26T17:34:43.578Z,99.90
2022-12-26T17:38:48.422Z,99.90
2022-12-26T17:42:53.512Z,99.90
2022-12-26T17:46:56.381Z,99.90
2022-12-26T17:51:01.247Z,99.90
2022-12-26T17:55:14.726Z,99.90
2022-12-26T17:59:18.624Z,99.90
2022-12-26T18:03:22.440Z,99.90
2022-12-26T18:07:31.708Z,99.90
2022-12-26T18:11:36.304Z,99.90
2022-12-26T18:15:40.286Z,99.90
2022-12-26T18:19:49.461Z,99.90
2022-12-26T18:23:52.481Z,99.90
2022-12-26T18:27:59.519Z,99.90
2022-12-26T18:32:04.159Z,99.90
2022-12-26T18:36:11.168Z,99.90
2022-12-26T18:40:28.219Z,99.90
2022-12-26T18:44:32.540Z,99.90
2022-12-26T18:48:35.392Z,99.90
2022-12-26T18:52:38.455Z,99.90
2022-12-26T18:56:45.922Z,99.90
2022-12-26T19:00:50.112Z,99.90
2022-12-26T19:04:52.916Z,99.90
2022-12-26T19:09:04.310Z,99.90
2022-12-26T19:13:08.982Z,99.90
2022-12-26T19:17:20.511Z,99.90
2022-12-26T19:21:24.419Z,99.90
2022-12-26T19:25:27.544Z,99.90
2022-12-26T19:29:30.502Z,99.90
2022-12-26T19:33:34.564Z,99.90
2022-12-26T19:37:37.366Z,99.90
2022-12-26T19:41:41.301Z,99.90
2022-12-26T19:45:45.675Z,99.90
2022-12-26T19:49:51.007Z,99.90
2022-12-26T19:53:53.840Z,99.90
2022-12-26T19:57:56.689Z,99.90
2022-12-26T20:01:59.647Z,99.90
2022-12-26T20:06:10.797Z,99.90
2022-12-26T20:10:13.627Z,99.90
2022-12-26T20:14:20.175Z,99.90
2022-12-26T20:18:23.025Z,99.90
2022-12-26T20:22:35.483Z,99.90
2022-12-26T20:26:38.455Z,99.90
2022-12-26T20:30:43.446Z,99.90
2022-12-26T20:34:46.379Z,99.90
2022-12-26T20:38:53.866Z,99.90
2022-12-26T20:42:59.010Z,99.90
2022-12-26T20:47:08.970Z,99.90
2022-12-26T20:51:15.148Z,99.90
2022-12-26T20:55:19.341Z,99.90
2022-12-26T20:59:22.278Z,99.90
2022-12-26T21:03:25.599Z,99.90
2022-12-26T21:07:28.518Z,99.90
2022-12-26T21:11:34.810Z,99.90
2022-12-26T21:15:38.129Z,99.90
2022-12-26T21:19:48.341Z,99.90
2022-12-26T21:23:51.547Z,99.90
2022-12-26T21:27:59.216Z,99.90
2022-12-26T21:32:19.018Z,99.90
2022-12-26T21:36:21.933Z,99.90
2022-12-26T21:40:27.462Z,99.90
2022-12-26T21:44:35.457Z,99.90
2022-12-26T21:48:38.418Z,99.90
2022-12-26T21:52:41.184Z,99.90
2022-12-26T21:56:43.987Z,99.90
2022-12-26T22:00:48.063Z,99.90
2022-12-26T22:04:53.201Z,99.90
2022-12-26T22:08:56.324Z,99.90
2022-12-26T22:12:59.438Z,99.90
2022-12-26T22:17:03.855Z,99.90
2022-12-26T22:21:12.245Z,99.90
2022-12-26T22:25:15.465Z,99.90
2022-12-26T22:29:18.281Z,99.90
2022-12-26T22:33:22.745Z,99.90
2022-12-26T22:37:25.875Z,99.90
2022-12-26T22:41:30.143Z,99.90
2022-12-26T22:45:33.013Z,99.90
2022-12-26T22:49:37.355Z,99.90
2022-12-26T22:53:40.341Z,99.90
2022-12-26T22:57:49.675Z,99.90
2022-12-26T23:01:55.409Z,99.90
2022-12-26T23:06:00.234Z,99.90
2022-12-26T23:10:03.467Z,99.60
2022-12-26T23:14:08.980Z,99.60
2022-12-26T23:18:40.709Z,99.40
2022-12-26T23:22:45.427Z,99.20
2022-12-26T23:26:50.018Z,99.00
2022-12-26T23:30:51.992Z,98.70
2022-12-26T23:34:54.823Z,98.60
2022-12-26T23:39:01.843Z,98.50
2022-12-26T23:43:04.681Z,98.30
2022-12-26T23:47:08.585Z,98.20
2022-12-26T23:51:11.363Z,98.20
2022-12-26T23:55:15.510Z,98.10
2022-12-26T23:59:18.542Z,98.10
